sensor_id;sensor_type;location;lat;lon;timestamp;P1;durP1;ratioP1;P2;durP2;ratioP2
57778;SDS011;43608;49.486;9.640;2023-08-17T00:00:15;2.58;;;2.20;;
57778;SDS011;43608;49.486;9.640;2023-08-17T00:00:48;2.15;;;1.90;;
57778;SDS011;43608;49.486;9.640;2023-08-17T00:01:19;2.35;;;2.00;;
57778;SDS011;43608;49.486;9.640;2023-08-17T00:01:49;2.40;;;1.90;;
57778;SDS011;43608;49.486;9.640;2023-08-17T00:02:19;2.10;;;1.90;;
57778;SDS011;43608;49.486;9.640;2023-08-17T00:02:50;1.98;;;1.70;;
57778;SDS011;43608;49.486;9.640;2023-08-17T00:03:20;1.95;;;1.70;;
57778;SDS011;43608;49.486;9.640;2023-08-17T00:03:51;1.88;;;1.70;;
57778;SDS011;43608;49.486;9.640;2023-08-17T00:04:21;2.20;;;1.85;;
57778;SDS011;43608;49.486;9.640;2023-08-17T00:04:52;1.98;;;1.77;;
57778;SDS011;43608;49.486;9.640;2023-08-17T00:05:22;2.22;;;1.80;;
57778;SDS011;43608;49.486;9.640;2023-08-17T00:05:52;2.00;;;1.80;;
57778;SDS011;43608;49.486;9.640;2023-08-17T00:06:23;1.88;;;1.60;;
57778;SDS011;43608;49.486;9.640;2023-08-17T00:06:53;1.77;;;1.67;;
57778;SDS011;43608;49.486;9.640;2023-08-17T00:07:23;1.80;;;1.70;;
57778;SDS011;43608;49.486;9.640;2023-08-17T00:07:54;2.28;;;1.92;;
57778;SDS011;43608;49.486;9.640;2023-08-17T00:08:24;2.75;;;1.98;;
57778;SDS011;43608;49.486;9.640;2023-08-17T00:08:55;2.70;;;2.10;;
57778;SDS011;43608;49.486;9.640;2023-08-17T00:09:25;3.83;;;2.47;;
57778;SDS011;43608;49.486;9.640;2023-08-17T00:09:56;3.00;;;2.22;;
57778;SDS011;43608;49.486;9.640;2023-08-17T00:10:26;3.22;;;2.30;;
57778;SDS011;43608;49.486;9.640;2023-08-17T00:10:57;3.17;;;2.08;;
57778;SDS011;43608;49.486;9.640;2023-08-17T00:11:27;3.15;;;2.13;;
57778;SDS011;43608;49.486;9.640;2023-08-17T00:11:57;3.10;;;2.30;;
57778;SDS011;43608;49.486;9.640;2023-08-17T00:12:28;3.58;;;2.45;;
57778;SDS011;43608;49.486;9.640;2023-08-17T00:12:59;3.95;;;2.38;;
57778;SDS011;43608;49.486;9.640;2023-08-17T00:13:29;3.65;;;2.28;;
57778;SDS011;43608;49.486;9.640;2023-08-17T00:13:59;3.53;;;2.40;;
57778;SDS011;43608;49.486;9.640;2023-08-17T00:14:30;3.22;;;2.47;;
57778;SDS011;43608;49.486;9.640;2023-08-17T00:15:00;3.72;;;2.58;;
57778;SDS011;43608;49.486;9.640;2023-08-17T00:15:31;3.22;;;2.38;;
57778;SDS011;43608;49.486;9.640;2023-08-17T00:16:02;2.88;;;2.08;;
57778;SDS011;43608;49.486;9.640;2023-08-17T00:16:32;3.17;;;2.20;;
57778;SDS011;43608;49.486;9.640;2023-08-17T00:17:03;2.83;;;2.25;;
57778;SDS011;43608;49.486;9.640;2023-08-17T00:17:33;3.28;;;2.17;;
57778;SDS011;43608;49.486;9.640;2023-08-17T00:18:04;2.83;;;2.17;;
57778;SDS011;43608;49.486;9.640;2023-08-17T00:18:34;2.70;;;2.10;;
57778;SDS011;43608;49.486;9.640;2023-08-17T00:19:04;2.55;;;2.03;;
57778;SDS011;43608;49.486;9.640;2023-08-17T00:19:35;2.45;;;2.00;;
57778;SDS011;43608;49.486;9.640;2023-08-17T00:20:05;2.58;;;2.00;;
57778;SDS011;43608;49.486;9.640;2023-08-17T00:20:36;2.85;;;1.90;;
57778;SDS011;43608;49.486;9.640;2023-08-17T00:21:07;1.92;;;1.73;;
57778;SDS011;43608;49.486;9.640;2023-08-17T00:21:37;2.60;;;1.92;;
57778;SDS011;43608;49.486;9.640;2023-08-17T00:22:08;2.17;;;1.83;;
57778;SDS011;43608;49.486;9.640;2023-08-17T00:22:38;2.20;;;1.80;;
57778;SDS011;43608;49.486;9.640;2023-08-17T00:23:08;2.65;;;1.80;;
57778;SDS011;43608;49.486;9.640;2023-08-17T00:23:39;2.30;;;1.80;;
57778;SDS011;43608;49.486;9.640;2023-08-17T00:24:09;2.30;;;1.92;;
57778;SDS011;43608;49.486;9.640;2023-08-17T00:24:39;2.80;;;2.10;;
57778;SDS011;43608;49.486;9.640;2023-08-17T00:25:11;2.72;;;1.92;;
57778;SDS011;43608;49.486;9.640;2023-08-17T00:25:42;2.20;;;1.83;;
57778;SDS011;43608;49.486;9.640;2023-08-17T00:26:12;2.63;;;1.80;;
57778;SDS011;43608;49.486;9.640;2023-08-17T00:26:44;2.00;;;1.80;;
57778;SDS011;43608;49.486;9.640;2023-08-17T00:27:14;2.25;;;1.70;;
57778;SDS011;43608;49.486;9.640;2023-08-17T00:27:44;2.05;;;1.70;;
57778;SDS011;43608;49.486;9.640;2023-08-17T00:28:15;3.03;;;1.80;;
57778;SDS011;43608;49.486;9.640;2023-08-17T00:28:45;2.22;;;1.60;;
57778;SDS011;43608;49.486;9.640;2023-08-17T00:29:15;2.08;;;1.70;;
57778;SDS011;43608;49.486;9.640;2023-08-17T00:29:47;1.85;;;1.65;;
57778;SDS011;43608;49.486;9.640;2023-08-17T00:30:17;1.92;;;1.70;;
57778;SDS011;43608;49.486;9.640;2023-08-17T00:30:48;1.65;;;1.55;;
57778;SDS011;43608;49.486;9.640;2023-08-17T00:31:19;1.65;;;1.55;;
57778;SDS011;43608;49.486;9.640;2023-08-17T00:31:49;1.92;;;1.70;;
57778;SDS011;43608;49.486;9.640;2023-08-17T00:32:20;1.40;;;1.30;;
57778;SDS011;43608;49.486;9.640;2023-08-17T00:32:50;2.65;;;1.70;;
57778;SDS011;43608;49.486;9.640;2023-08-17T00:33:20;1.70;;;1.60;;
57778;SDS011;43608;49.486;9.640;2023-08-17T00:33:51;1.90;;;1.60;;
57778;SDS011;43608;49.486;9.640;2023-08-17T00:34:21;2.30;;;1.70;;
57778;SDS011;43608;49.486;9.640;2023-08-17T00:34:52;1.50;;;1.40;;
57778;SDS011;43608;49.486;9.640;2023-08-17T00:35:22;1.67;;;1.58;;
57778;SDS011;43608;49.486;9.640;2023-08-17T00:35:52;1.60;;;1.50;;
57778;SDS011;43608;49.486;9.640;2023-08-17T00:36:23;1.52;;;1.42;;
57778;SDS011;43608;49.486;9.640;2023-08-17T00:36:53;1.50;;;1.40;;
57778;SDS011;43608;49.486;9.640;2023-08-17T00:37:23;1.50;;;1.40;;
57778;SDS011;43608;49.486;9.640;2023-08-17T00:37:54;1.45;;;1.35;;
57778;SDS011;43608;49.486;9.640;2023-08-17T00:38:24;1.50;;;1.40;;
57778;SDS011;43608;49.486;9.640;2023-08-17T00:38:54;1.40;;;1.30;;
57778;SDS011;43608;49.486;9.640;2023-08-17T00:39:25;1.40;;;1.30;;
57778;SDS011;43608;49.486;9.640;2023-08-17T00:39:55;1.50;;;1.40;;
57778;SDS011;43608;49.486;9.640;2023-08-17T00:40:25;1.42;;;1.33;;
57778;SDS011;43608;49.486;9.640;2023-08-17T00:40:56;1.50;;;1.40;;
57778;SDS011;43608;49.486;9.640;2023-08-17T00:41:26;1.35;;;1.25;;
57778;SDS011;43608;49.486;9.640;2023-08-17T00:41:58;1.35;;;1.25;;
57778;SDS011;43608;49.486;9.640;2023-08-17T00:42:28;1.38;;;1.27;;
57778;SDS011;43608;49.486;9.640;2023-08-17T00:42:59;1.40;;;1.30;;
57778;SDS011;43608;49.486;9.640;2023-08-17T00:43:29;1.40;;;1.30;;
57778;SDS011;43608;49.486;9.640;2023-08-17T00:44:00;1.30;;;1.20;;
57778;SDS011;43608;49.486;9.640;2023-08-17T00:44:31;1.30;;;1.20;;
57778;SDS011;43608;49.486;9.640;2023-08-17T00:45:01;1.67;;;1.50;;
57778;SDS011;43608;49.486;9.640;2023-08-17T00:45:32;1.48;;;1.38;;
57778;SDS011;43608;49.486;9.640;2023-08-17T00:46:03;1.40;;;1.30;;
57778;SDS011;43608;49.486;9.640;2023-08-17T00:46:33;1.50;;;1.40;;
57778;SDS011;43608;49.486;9.640;2023-08-17T00:47:04;1.45;;;1.33;;
57778;SDS011;43608;49.486;9.640;2023-08-17T00:47:34;1.60;;;1.50;;
57778;SDS011;43608;49.486;9.640;2023-08-17T00:48:05;1.48;;;1.40;;
57778;SDS011;43608;49.486;9.640;2023-08-17T00:48:37;1.80;;;1.40;;
57778;SDS011;43608;49.486;9.640;2023-08-17T00:49:08;1.50;;;1.40;;
57778;SDS011;43608;49.486;9.640;2023-08-17T00:49:40;1.63;;;1.52;;
57778;SDS011;43608;49.486;9.640;2023-08-17T00:50:11;1.60;;;1.50;;
57778;SDS011;43608;49.486;9.640;2023-08-17T00:50:42;1.73;;;1.63;;
57778;SDS011;43608;49.486;9.640;2023-08-17T00:51:14;2.58;;;1.70;;
57778;SDS011;43608;49.486;9.640;2023-08-17T00:51:45;1.42;;;1.30;;
57778;SDS011;43608;49.486;9.640;2023-08-17T00:52:15;1.60;;;1.50;;
57778;SDS011;43608;49.486;9.640;2023-08-17T00:52:46;1.60;;;1.50;;
57778;SDS011;43608;49.486;9.640;2023-08-17T00:53:16;1.60;;;1.50;;
57778;SDS011;43608;49.486;9.640;2023-08-17T00:53:47;1.63;;;1.45;;
57778;SDS011;43608;49.486;9.640;2023-08-17T00:54:23;1.83;;;1.60;;
57778;SDS011;43608;49.486;9.640;2023-08-17T00:54:55;1.58;;;1.48;;
57778;SDS011;43608;49.486;9.640;2023-08-17T00:55:27;1.75;;;1.65;;
57778;SDS011;43608;49.486;9.640;2023-08-17T00:55:58;1.70;;;1.50;;
57778;SDS011;43608;49.486;9.640;2023-08-17T00:56:30;1.40;;;1.30;;
57778;SDS011;43608;49.486;9.640;2023-08-17T00:57:01;1.58;;;1.48;;
57778;SDS011;43608;49.486;9.640;2023-08-17T00:57:33;1.73;;;1.50;;
57778;SDS011;43608;49.486;9.640;2023-08-17T00:58:05;1.20;;;1.20;;
57778;SDS011;43608;49.486;9.640;2023-08-17T00:58:36;1.40;;;1.27;;
57778;SDS011;43608;49.486;9.640;2023-08-17T00:59:06;1.60;;;1.50;;
57778;SDS011;43608;49.486;9.640;2023-08-17T00:59:37;1.50;;;1.40;;
57778;SDS011;43608;49.486;9.640;2023-08-17T01:00:08;1.48;;;1.38;;
57778;SDS011;43608;49.486;9.640;2023-08-17T01:00:40;1.50;;;1.40;;
57778;SDS011;43608;49.486;9.640;2023-08-17T01:01:10;1.48;;;1.38;;
57778;SDS011;43608;49.486;9.640;2023-08-17T01:01:40;1.20;;;1.20;;
57778;SDS011;43608;49.486;9.640;2023-08-17T01:02:11;1.50;;;1.40;;
57778;SDS011;43608;49.486;9.640;2023-08-17T01:02:42;1.50;;;1.40;;
57778;SDS011;43608;49.486;9.640;2023-08-17T01:03:12;1.63;;;1.35;;
57778;SDS011;43608;49.486;9.640;2023-08-17T01:03:43;1.38;;;1.33;;
57778;SDS011;43608;49.486;9.640;2023-08-17T01:04:13;1.50;;;1.40;;
57778;SDS011;43608;49.486;9.640;2023-08-17T01:04:43;1.25;;;1.20;;
57778;SDS011;43608;49.486;9.640;2023-08-17T01:05:14;1.33;;;1.23;;
57778;SDS011;43608;49.486;9.640;2023-08-17T01:05:44;1.20;;;1.20;;
57778;SDS011;43608;49.486;9.640;2023-08-17T01:06:15;1.20;;;1.10;;
57778;SDS011;43608;49.486;9.640;2023-08-17T01:06:45;1.20;;;1.20;;
57778;SDS011;43608;49.486;9.640;2023-08-17T01:07:15;1.30;;;1.20;;
57778;SDS011;43608;49.486;9.640;2023-08-17T01:07:46;1.20;;;1.20;;
57778;SDS011;43608;49.486;9.640;2023-08-17T01:08:16;1.20;;;1.20;;
57778;SDS011;43608;49.486;9.640;2023-08-17T01:08:46;1.10;;;1.10;;
57778;SDS011;43608;49.486;9.640;2023-08-17T01:09:17;1.10;;;1.10;;
57778;SDS011;43608;49.486;9.640;2023-08-17T01:09:48;1.30;;;1.30;;
57778;SDS011;43608;49.486;9.640;2023-08-17T01:10:18;1.20;;;1.20;;
57778;SDS011;43608;49.486;9.640;2023-08-17T01:10:55;1.00;;;1.00;;
57778;SDS011;43608;49.486;9.640;2023-08-17T01:11:34;1.30;;;1.20;;
57778;SDS011;43608;49.486;9.640;2023-08-17T01:13:11;1.70;;;1.30;;
57778;SDS011;43608;49.486;9.640;2023-08-17T01:13:55;1.25;;;1.13;;
57778;SDS011;43608;49.486;9.640;2023-08-17T01:14:39;1.40;;;1.30;;
57778;SDS011;43608;49.486;9.640;2023-08-17T01:15:22;1.30;;;1.20;;
57778;SDS011;43608;49.486;9.640;2023-08-17T01:15:56;1.40;;;1.30;;
57778;SDS011;43608;49.486;9.640;2023-08-17T01:16:33;1.27;;;1.20;;
57778;SDS011;43608;49.486;9.640;2023-08-17T01:17:43;1.40;;;1.30;;
57778;SDS011;43608;49.486;9.640;2023-08-17T01:18:20;1.30;;;1.20;;
57778;SDS011;43608;49.486;9.640;2023-08-17T01:18:58;1.45;;;1.35;;
57778;SDS011;43608;49.486;9.640;2023-08-17T01:19:31;1.25;;;1.15;;
57778;SDS011;43608;49.486;9.640;2023-08-17T01:20:02;1.40;;;1.30;;
57778;SDS011;43608;49.486;9.640;2023-08-17T01:20:34;1.42;;;1.33;;
57778;SDS011;43608;49.486;9.640;2023-08-17T01:21:06;1.30;;;1.30;;
57778;SDS011;43608;49.486;9.640;2023-08-17T01:21:44;1.23;;;1.20;;
57778;SDS011;43608;49.486;9.640;2023-08-17T01:22:20;1.40;;;1.30;;
57778;SDS011;43608;49.486;9.640;2023-08-17T01:22:54;1.15;;;1.15;;
57778;SDS011;43608;49.486;9.640;2023-08-17T01:23:28;1.27;;;1.20;;
57778;SDS011;43608;49.486;9.640;2023-08-17T01:23:59;1.15;;;1.15;;
57778;SDS011;43608;49.486;9.640;2023-08-17T01:24:33;1.20;;;1.20;;
57778;SDS011;43608;49.486;9.640;2023-08-17T01:25:04;1.30;;;1.20;;
57778;SDS011;43608;49.486;9.640;2023-08-17T01:25:34;1.05;;;1.05;;
57778;SDS011;43608;49.486;9.640;2023-08-17T01:26:06;1.60;;;1.10;;
57778;SDS011;43608;49.486;9.640;2023-08-17T01:26:36;1.40;;;1.30;;
57778;SDS011;43608;49.486;9.640;2023-08-17T01:27:07;1.08;;;1.08;;
57778;SDS011;43608;49.486;9.640;2023-08-17T01:27:41;1.25;;;1.17;;
57778;SDS011;43608;49.486;9.640;2023-08-17T01:28:13;1.30;;;1.20;;
57778;SDS011;43608;49.486;9.640;2023-08-17T01:28:44;1.27;;;1.20;;
57778;SDS011;43608;49.486;9.640;2023-08-17T01:29:17;1.20;;;1.10;;
57778;SDS011;43608;49.486;9.640;2023-08-17T01:29:47;1.10;;;1.10;;
57778;SDS011;43608;49.486;9.640;2023-08-17T01:30:17;1.10;;;1.10;;
57778;SDS011;43608;49.486;9.640;2023-08-17T01:30:55;1.30;;;1.20;;
57778;SDS011;43608;49.486;9.640;2023-08-17T01:33:08;1.23;;;1.20;;
57778;SDS011;43608;49.486;9.640;2023-08-17T01:33:42;1.20;;;1.15;;
57778;SDS011;43608;49.486;9.640;2023-08-17T01:34:18;1.58;;;1.20;;
57778;SDS011;43608;49.486;9.640;2023-08-17T01:34:55;1.15;;;1.10;;
57778;SDS011;43608;49.486;9.640;2023-08-17T01:35:38;1.25;;;1.25;;
57778;SDS011;43608;49.486;9.640;2023-08-17T01:36:24;1.27;;;1.17;;
57778;SDS011;43608;49.486;9.640;2023-08-17T01:36:57;1.35;;;1.25;;
57778;SDS011;43608;49.486;9.640;2023-08-17T01:37:30;1.20;;;1.10;;
57778;SDS011;43608;49.486;9.640;2023-08-17T01:38:07;1.50;;;1.38;;
57778;SDS011;43608;49.486;9.640;2023-08-17T01:38:42;1.02;;;1.02;;
57778;SDS011;43608;49.486;9.640;2023-08-17T01:39:14;1.15;;;1.10;;
57778;SDS011;43608;49.486;9.640;2023-08-17T01:39:48;1.20;;;1.20;;
57778;SDS011;43608;49.486;9.640;2023-08-17T01:40:22;1.33;;;1.23;;
57778;SDS011;43608;49.486;9.640;2023-08-17T01:40:54;1.30;;;1.20;;
57778;SDS011;43608;49.486;9.640;2023-08-17T01:41:25;1.10;;;1.10;;
57778;SDS011;43608;49.486;9.640;2023-08-17T01:41:56;1.25;;;1.15;;
57778;SDS011;43608;49.486;9.640;2023-08-17T01:42:28;1.25;;;1.25;;
57778;SDS011;43608;49.486;9.640;2023-08-17T01:43:01;1.27;;;1.23;;
57778;SDS011;43608;49.486;9.640;2023-08-17T01:43:32;1.13;;;1.13;;
57778;SDS011;43608;49.486;9.640;2023-08-17T01:44:04;1.20;;;1.20;;
57778;SDS011;43608;49.486;9.640;2023-08-17T01:44:35;1.35;;;1.35;;
57778;SDS011;43608;49.486;9.640;2023-08-17T01:45:06;1.00;;;1.00;;
57778;SDS011;43608;49.486;9.640;2023-08-17T01:45:36;1.50;;;1.30;;
57778;SDS011;43608;49.486;9.640;2023-08-17T01:46:07;1.02;;;1.02;;
57778;SDS011;43608;49.486;9.640;2023-08-17T01:46:38;1.50;;;1.40;;
57778;SDS011;43608;49.486;9.640;2023-08-17T01:47:09;1.27;;;1.17;;
57778;SDS011;43608;49.486;9.640;2023-08-17T01:47:40;1.10;;;1.10;;
57778;SDS011;43608;49.486;9.640;2023-08-17T01:48:11;1.17;;;1.17;;
57778;SDS011;43608;49.486;9.640;2023-08-17T01:48:44;1.10;;;1.10;;
57778;SDS011;43608;49.486;9.640;2023-08-17T01:49:15;1.30;;;1.20;;
57778;SDS011;43608;49.486;9.640;2023-08-17T01:49:46;1.10;;;1.10;;
57778;SDS011;43608;49.486;9.640;2023-08-17T01:50:16;1.10;;;1.10;;
57778;SDS011;43608;49.486;9.640;2023-08-17T01:50:46;1.13;;;1.10;;
57778;SDS011;43608;49.486;9.640;2023-08-17T01:51:18;1.30;;;1.30;;
57778;SDS011;43608;49.486;9.640;2023-08-17T01:51:51;1.02;;;1.02;;
57778;SDS011;43608;49.486;9.640;2023-08-17T01:52:22;1.27;;;1.17;;
57778;SDS011;43608;49.486;9.640;2023-08-17T01:52:54;1.08;;;1.08;;
57778;SDS011;43608;49.486;9.640;2023-08-17T01:53:24;1.10;;;1.10;;
57778;SDS011;43608;49.486;9.640;2023-08-17T01:53:54;1.10;;;1.10;;
57778;SDS011;43608;49.486;9.640;2023-08-17T01:54:25;1.10;;;1.10;;
57778;SDS011;43608;49.486;9.640;2023-08-17T01:54:55;0.98;;;0.98;;
57778;SDS011;43608;49.486;9.640;2023-08-17T01:55:26;1.42;;;1.33;;
57778;SDS011;43608;49.486;9.640;2023-08-17T01:55:57;1.15;;;1.15;;
57778;SDS011;43608;49.486;9.640;2023-08-17T01:56:27;1.23;;;1.17;;
57778;SDS011;43608;49.486;9.640;2023-08-17T01:56:57;1.45;;;1.35;;
57778;SDS011;43608;49.486;9.640;2023-08-17T01:57:28;2.05;;;1.20;;
57778;SDS011;43608;49.486;9.640;2023-08-17T01:57:58;1.13;;;1.10;;
57778;SDS011;43608;49.486;9.640;2023-08-17T01:58:28;1.40;;;1.30;;
57778;SDS011;43608;49.486;9.640;2023-08-17T01:58:59;1.10;;;1.10;;
57778;SDS011;43608;49.486;9.640;2023-08-17T01:59:29;1.40;;;1.30;;
57778;SDS011;43608;49.486;9.640;2023-08-17T01:59:59;1.27;;;1.23;;
57778;SDS011;43608;49.486;9.640;2023-08-17T02:00:30;1.50;;;1.40;;
57778;SDS011;43608;49.486;9.640;2023-08-17T02:01:00;1.33;;;1.30;;
57778;SDS011;43608;49.486;9.640;2023-08-17T02:01:31;1.60;;;1.50;;
57778;SDS011;43608;49.486;9.640;2023-08-17T02:02:01;1.50;;;1.40;;
57778;SDS011;43608;49.486;9.640;2023-08-17T02:02:31;1.50;;;1.40;;
57778;SDS011;43608;49.486;9.640;2023-08-17T02:03:02;1.50;;;1.40;;
57778;SDS011;43608;49.486;9.640;2023-08-17T02:03:32;1.50;;;1.40;;
57778;SDS011;43608;49.486;9.640;2023-08-17T02:04:03;1.40;;;1.38;;
57778;SDS011;43608;49.486;9.640;2023-08-17T02:04:33;1.40;;;1.30;;
57778;SDS011;43608;49.486;9.640;2023-08-17T02:05:04;1.50;;;1.40;;
57778;SDS011;43608;49.486;9.640;2023-08-17T02:05:34;1.30;;;1.20;;
57778;SDS011;43608;49.486;9.640;2023-08-17T02:06:05;1.40;;;1.30;;
57778;SDS011;43608;49.486;9.640;2023-08-17T02:06:35;1.38;;;1.20;;
57778;SDS011;43608;49.486;9.640;2023-08-17T02:07:05;1.60;;;1.50;;
57778;SDS011;43608;49.486;9.640;2023-08-17T02:07:36;1.15;;;1.15;;
57778;SDS011;43608;49.486;9.640;2023-08-17T02:08:06;1.40;;;1.30;;
57778;SDS011;43608;49.486;9.640;2023-08-17T02:08:37;1.13;;;1.13;;
57778;SDS011;43608;49.486;9.640;2023-08-17T02:09:08;1.30;;;1.20;;
57778;SDS011;43608;49.486;9.640;2023-08-17T02:09:39;1.42;;;1.33;;
57778;SDS011;43608;49.486;9.640;2023-08-17T02:10:09;1.10;;;1.10;;
57778;SDS011;43608;49.486;9.640;2023-08-17T02:10:39;1.40;;;1.30;;
57778;SDS011;43608;49.486;9.640;2023-08-17T02:11:10;1.30;;;1.30;;
57778;SDS011;43608;49.486;9.640;2023-08-17T02:11:40;1.40;;;1.30;;
57778;SDS011;43608;49.486;9.640;2023-08-17T02:12:11;1.20;;;1.20;;
57778;SDS011;43608;49.486;9.640;2023-08-17T02:12:41;1.20;;;1.20;;
57778;SDS011;43608;49.486;9.640;2023-08-17T02:13:11;1.02;;;1.02;;
57778;SDS011;43608;49.486;9.640;2023-08-17T02:13:42;1.10;;;1.10;;
57778;SDS011;43608;49.486;9.640;2023-08-17T02:14:13;1.15;;;1.15;;
57778;SDS011;43608;49.486;9.640;2023-08-17T02:14:43;1.10;;;1.10;;
57778;SDS011;43608;49.486;9.640;2023-08-17T02:15:13;1.13;;;1.13;;
57778;SDS011;43608;49.486;9.640;2023-08-17T02:15:44;1.10;;;1.10;;
57778;SDS011;43608;49.486;9.640;2023-08-17T02:16:15;1.40;;;1.30;;
57778;SDS011;43608;49.486;9.640;2023-08-17T02:16:45;1.10;;;1.10;;
57778;SDS011;43608;49.486;9.640;2023-08-17T02:17:15;1.15;;;1.15;;
57778;SDS011;43608;49.486;9.640;2023-08-17T02:17:46;1.05;;;1.05;;
57778;SDS011;43608;49.486;9.640;2023-08-17T02:18:16;1.45;;;1.35;;
57778;SDS011;43608;49.486;9.640;2023-08-17T02:18:47;1.20;;;1.20;;
57778;SDS011;43608;49.486;9.640;2023-08-17T02:19:17;0.90;;;0.90;;
57778;SDS011;43608;49.486;9.640;2023-08-17T02:19:48;1.20;;;1.10;;
57778;SDS011;43608;49.486;9.640;2023-08-17T02:20:18;1.10;;;1.10;;
57778;SDS011;43608;49.486;9.640;2023-08-17T02:20:49;1.20;;;1.20;;
57778;SDS011;43608;49.486;9.640;2023-08-17T02:21:19;1.40;;;1.30;;
57778;SDS011;43608;49.486;9.640;2023-08-17T02:21:50;1.23;;;1.20;;
57778;SDS011;43608;49.486;9.640;2023-08-17T02:22:21;1.27;;;1.17;;
57778;SDS011;43608;49.486;9.640;2023-08-17T02:22:51;1.23;;;1.23;;
57778;SDS011;43608;49.486;9.640;2023-08-17T02:23:21;1.00;;;1.00;;
57778;SDS011;43608;49.486;9.640;2023-08-17T02:23:52;1.05;;;1.05;;
57778;SDS011;43608;49.486;9.640;2023-08-17T02:24:22;1.10;;;1.10;;
57778;SDS011;43608;49.486;9.640;2023-08-17T02:24:53;1.10;;;1.10;;
57778;SDS011;43608;49.486;9.640;2023-08-17T02:25:23;1.10;;;1.10;;
57778;SDS011;43608;49.486;9.640;2023-08-17T02:25:53;1.38;;;1.30;;
57778;SDS011;43608;49.486;9.640;2023-08-17T02:26:24;1.00;;;1.00;;
57778;SDS011;43608;49.486;9.640;2023-08-17T02:26:54;1.30;;;1.20;;
57778;SDS011;43608;49.486;9.640;2023-08-17T02:27:24;1.25;;;1.20;;
57778;SDS011;43608;49.486;9.640;2023-08-17T02:27:55;1.17;;;1.13;;
57778;SDS011;43608;49.486;9.640;2023-08-17T02:28:25;1.20;;;1.10;;
57778;SDS011;43608;49.486;9.640;2023-08-17T02:28:55;1.10;;;1.10;;
57778;SDS011;43608;49.486;9.640;2023-08-17T02:29:26;1.10;;;1.10;;
57778;SDS011;43608;49.486;9.640;2023-08-17T02:29:56;1.05;;;1.05;;
57778;SDS011;43608;49.486;9.640;2023-08-17T02:30:26;1.15;;;1.05;;
57778;SDS011;43608;49.486;9.640;2023-08-17T02:30:58;1.27;;;1.17;;
57778;SDS011;43608;49.486;9.640;2023-08-17T02:31:28;1.00;;;1.00;;
57778;SDS011;43608;49.486;9.640;2023-08-17T02:31:59;1.10;;;1.10;;
57778;SDS011;43608;49.486;9.640;2023-08-17T02:32:29;1.20;;;1.10;;
57778;SDS011;43608;49.486;9.640;2023-08-17T02:32:59;1.00;;;1.00;;
57778;SDS011;43608;49.486;9.640;2023-08-17T02:33:30;1.00;;;1.00;;
57778;SDS011;43608;49.486;9.640;2023-08-17T02:34:00;1.00;;;1.00;;
57778;SDS011;43608;49.486;9.640;2023-08-17T02:34:35;1.10;;;1.10;;
57778;SDS011;43608;49.486;9.640;2023-08-17T02:35:06;1.15;;;1.15;;
57778;SDS011;43608;49.486;9.640;2023-08-17T02:35:37;1.15;;;1.15;;
57778;SDS011;43608;49.486;9.640;2023-08-17T02:36:07;1.10;;;1.10;;
57778;SDS011;43608;49.486;9.640;2023-08-17T02:36:38;1.10;;;1.10;;
57778;SDS011;43608;49.486;9.640;2023-08-17T02:37:08;1.23;;;1.13;;
57778;SDS011;43608;49.486;9.640;2023-08-17T02:37:38;0.90;;;0.90;;
57778;SDS011;43608;49.486;9.640;2023-08-17T02:38:08;1.08;;;1.08;;
57778;SDS011;43608;49.486;9.640;2023-08-17T02:38:39;1.10;;;1.10;;
57778;SDS011;43608;49.486;9.640;2023-08-17T02:39:09;1.20;;;1.20;;
57778;SDS011;43608;49.486;9.640;2023-08-17T02:39:40;1.20;;;1.20;;
57778;SDS011;43608;49.486;9.640;2023-08-17T02:40:11;1.00;;;1.00;;
57778;SDS011;43608;49.486;9.640;2023-08-17T02:40:41;1.00;;;1.00;;
57778;SDS011;43608;49.486;9.640;2023-08-17T02:41:11;1.10;;;1.10;;
57778;SDS011;43608;49.486;9.640;2023-08-17T02:41:42;1.00;;;1.00;;
57778;SDS011;43608;49.486;9.640;2023-08-17T02:42:14;1.20;;;1.20;;
57778;SDS011;43608;49.486;9.640;2023-08-17T02:42:45;1.10;;;1.10;;
57778;SDS011;43608;49.486;9.640;2023-08-17T02:43:15;0.93;;;0.93;;
57778;SDS011;43608;49.486;9.640;2023-08-17T02:43:46;1.10;;;1.10;;
57778;SDS011;43608;49.486;9.640;2023-08-17T02:44:16;1.10;;;1.10;;
57778;SDS011;43608;49.486;9.640;2023-08-17T02:44:46;1.10;;;1.10;;
57778;SDS011;43608;49.486;9.640;2023-08-17T02:45:17;1.00;;;1.00;;
57778;SDS011;43608;49.486;9.640;2023-08-17T02:45:47;1.20;;;1.20;;
57778;SDS011;43608;49.486;9.640;2023-08-17T02:46:17;1.30;;;1.20;;
57778;SDS011;43608;49.486;9.640;2023-08-17T02:46:48;1.02;;;1.02;;
57778;SDS011;43608;49.486;9.640;2023-08-17T02:47:18;1.20;;;1.20;;
57778;SDS011;43608;49.486;9.640;2023-08-17T02:47:48;1.20;;;1.20;;
57778;SDS011;43608;49.486;9.640;2023-08-17T02:48:19;1.10;;;1.10;;
57778;SDS011;43608;49.486;9.640;2023-08-17T02:48:49;1.00;;;1.00;;
57778;SDS011;43608;49.486;9.640;2023-08-17T02:49:20;1.00;;;1.00;;
57778;SDS011;43608;49.486;9.640;2023-08-17T02:49:51;1.30;;;1.20;;
57778;SDS011;43608;49.486;9.640;2023-08-17T02:50:21;1.35;;;1.25;;
57778;SDS011;43608;49.486;9.640;2023-08-17T02:50:51;1.20;;;1.20;;
57778;SDS011;43608;49.486;9.640;2023-08-17T02:51:22;1.13;;;1.13;;
57778;SDS011;43608;49.486;9.640;2023-08-17T02:51:52;1.20;;;1.20;;
57778;SDS011;43608;49.486;9.640;2023-08-17T02:52:22;1.17;;;1.17;;
57778;SDS011;43608;49.486;9.640;2023-08-17T02:52:53;1.15;;;1.10;;
57778;SDS011;43608;49.486;9.640;2023-08-17T02:53:23;1.17;;;1.17;;
57778;SDS011;43608;49.486;9.640;2023-08-17T02:53:53;1.25;;;1.25;;
57778;SDS011;43608;49.486;9.640;2023-08-17T02:54:24;1.27;;;1.20;;
57778;SDS011;43608;49.486;9.640;2023-08-17T02:54:54;1.23;;;1.20;;
57778;SDS011;43608;49.486;9.640;2023-08-17T02:55:24;1.20;;;1.20;;
57778;SDS011;43608;49.486;9.640;2023-08-17T02:55:55;1.30;;;1.20;;
57778;SDS011;43608;49.486;9.640;2023-08-17T02:56:25;1.33;;;1.23;;
57778;SDS011;43608;49.486;9.640;2023-08-17T02:56:56;1.25;;;1.20;;
57778;SDS011;43608;49.486;9.640;2023-08-17T02:57:27;1.23;;;1.17;;
57778;SDS011;43608;49.486;9.640;2023-08-17T02:57:57;1.30;;;1.20;;
57778;SDS011;43608;49.486;9.640;2023-08-17T02:58:27;1.10;;;1.10;;
57778;SDS011;43608;49.486;9.640;2023-08-17T02:58:58;1.20;;;1.20;;
57778;SDS011;43608;49.486;9.640;2023-08-17T02:59:28;1.10;;;1.10;;
57778;SDS011;43608;49.486;9.640;2023-08-17T02:59:58;1.30;;;1.20;;
57778;SDS011;43608;49.486;9.640;2023-08-17T03:00:29;1.08;;;1.08;;
57778;SDS011;43608;49.486;9.640;2023-08-17T03:01:02;1.23;;;1.17;;
57778;SDS011;43608;49.486;9.640;2023-08-17T03:01:32;1.23;;;1.20;;
57778;SDS011;43608;49.486;9.640;2023-08-17T03:02:03;1.20;;;1.20;;
57778;SDS011;43608;49.486;9.640;2023-08-17T03:02:33;1.10;;;1.10;;
57778;SDS011;43608;49.486;9.640;2023-08-17T03:03:03;1.30;;;1.20;;
57778;SDS011;43608;49.486;9.640;2023-08-17T03:03:34;1.10;;;1.10;;
57778;SDS011;43608;49.486;9.640;2023-08-17T03:04:05;1.10;;;1.10;;
57778;SDS011;43608;49.486;9.640;2023-08-17T03:04:35;1.30;;;1.20;;
57778;SDS011;43608;49.486;9.640;2023-08-17T03:05:05;1.00;;;1.00;;
57778;SDS011;43608;49.486;9.640;2023-08-17T03:05:36;1.20;;;1.20;;
57778;SDS011;43608;49.486;9.640;2023-08-17T03:06:07;0.90;;;0.90;;
57778;SDS011;43608;49.486;9.640;2023-08-17T03:06:37;1.15;;;1.15;;
57778;SDS011;43608;49.486;9.640;2023-08-17T03:07:08;1.00;;;1.00;;
57778;SDS011;43608;49.486;9.640;2023-08-17T03:07:38;1.15;;;1.15;;
57778;SDS011;43608;49.486;9.640;2023-08-17T03:08:08;1.17;;;1.17;;
57778;SDS011;43608;49.486;9.640;2023-08-17T03:08:39;1.20;;;1.20;;
57778;SDS011;43608;49.486;9.640;2023-08-17T03:09:09;1.02;;;1.02;;
57778;SDS011;43608;49.486;9.640;2023-08-17T03:09:40;1.38;;;1.27;;
57778;SDS011;43608;49.486;9.640;2023-08-17T03:10:11;1.33;;;1.23;;
57778;SDS011;43608;49.486;9.640;2023-08-17T03:10:41;1.30;;;1.20;;
57778;SDS011;43608;49.486;9.640;2023-08-17T03:11:12;1.00;;;1.00;;